sensor_id;sensor_type;location;lat;lon;timestamp;P1;durP1;ratioP1;P2;durP2;ratioP2
59390;SDS011;53405;57.012;40.984;2022-07-25T00:02:35;19.73;;;15.55;;
59390;SDS011;53405;57.012;40.984;2022-07-25T00:05:23;18.73;;;15.32;;
59390;SDS011;53405;57.012;40.984;2022-07-25T00:08:10;21.75;;;15.25;;
59390;SDS011;53405;57.012;40.984;2022-07-25T00:10:58;20.92;;;14.45;;
59390;SDS011;53405;57.012;40.984;2022-07-25T00:13:45;19.20;;;14.68;;
59390;SDS011;53405;57.012;40.984;2022-07-25T00:16:33;21.17;;;15.43;;
59390;SDS011;53405;57.012;40.984;2022-07-25T00:19:21;19.27;;;15.05;;
59390;SDS011;53405;57.012;40.984;2022-07-25T00:22:08;17.70;;;14.75;;
59390;SDS011;53405;57.012;40.984;2022-07-25T00:24:56;19.55;;;15.30;;
59390;SDS011;53405;57.012;40.984;2022-07-25T00:27:44;22.10;;;15.10;;
59390;SDS011;53405;57.012;40.984;2022-07-25T00:30:32;18.70;;;14.70;;
59390;SDS011;53405;57.012;40.984;2022-07-25T00:33:19;18.13;;;15.27;;
59390;SDS011;53405;57.012;40.984;2022-07-25T00:36:07;18.58;;;15.20;;
59390;SDS011;53405;57.012;40.984;2022-07-25T00:38:55;16.60;;;14.10;;
59390;SDS011;53405;57.012;40.984;2022-07-25T00:41:43;20.58;;;14.43;;
59390;SDS011;53405;57.012;40.984;2022-07-25T00:44:31;20.90;;;14.48;;
59390;SDS011;53405;57.012;40.984;2022-07-25T00:47:19;16.17;;;14.48;;
59390;SDS011;53405;57.012;40.984;2022-07-25T00:50:07;19.17;;;14.77;;
59390;SDS011;53405;57.012;40.984;2022-07-25T00:52:55;18.48;;;14.60;;
59390;SDS011;53405;57.012;40.984;2022-07-25T00:55:42;19.65;;;14.85;;
59390;SDS011;53405;57.012;40.984;2022-07-25T00:58:30;18.65;;;14.25;;
59390;SDS011;53405;57.012;40.984;2022-07-25T01:01:18;20.03;;;15.63;;
59390;SDS011;53405;57.012;40.984;2022-07-25T01:04:06;17.05;;;15.27;;
59390;SDS011;53405;57.012;40.984;2022-07-25T01:06:54;19.73;;;16.58;;
59390;SDS011;53405;57.012;40.984;2022-07-25T01:09:41;17.70;;;15.80;;
59390;SDS011;53405;57.012;40.984;2022-07-25T01:12:29;18.40;;;16.05;;
59390;SDS011;53405;57.012;40.984;2022-07-25T01:15:17;17.85;;;15.68;;
59390;SDS011;53405;57.012;40.984;2022-07-25T01:18:06;17.60;;;15.35;;
59390;SDS011;53405;57.012;40.984;2022-07-25T01:20:54;17.27;;;14.80;;
59390;SDS011;53405;57.012;40.984;2022-07-25T01:23:41;17.50;;;14.93;;
59390;SDS011;53405;57.012;40.984;2022-07-25T01:26:29;19.42;;;15.60;;
59390;SDS011;53405;57.012;40.984;2022-07-25T01:29:18;17.63;;;14.77;;
59390;SDS011;53405;57.012;40.984;2022-07-25T01:32:05;18.90;;;14.65;;
59390;SDS011;53405;57.012;40.984;2022-07-25T01:34:53;17.30;;;14.20;;
59390;SDS011;53405;57.012;40.984;2022-07-25T01:37:41;16.35;;;14.25;;
59390;SDS011;53405;57.012;40.984;2022-07-25T01:40:28;15.00;;;13.45;;
59390;SDS011;53405;57.012;40.984;2022-07-25T01:43:16;16.27;;;13.70;;
59390;SDS011;53405;57.012;40.984;2022-07-25T01:46:03;15.80;;;14.20;;
59390;SDS011;53405;57.012;40.984;2022-07-25T01:48:51;17.75;;;14.55;;
59390;SDS011;53405;57.012;40.984;2022-07-25T01:51:39;17.40;;;14.13;;
59390;SDS011;53405;57.012;40.984;2022-07-25T01:54:26;16.35;;;14.32;;
59390;SDS011;53405;57.012;40.984;2022-07-25T01:57:14;19.25;;;14.23;;
59390;SDS011;53405;57.012;40.984;2022-07-25T02:00:03;16.80;;;14.57;;
59390;SDS011;53405;57.012;40.984;2022-07-25T02:02:58;18.55;;;14.50;;
59390;SDS011;53405;57.012;40.984;2022-07-25T02:06:05;19.80;;;15.07;;
59390;SDS011;53405;57.012;40.984;2022-07-25T02:08:53;22.48;;;16.60;;
59390;SDS011;53405;57.012;40.984;2022-07-25T02:11:41;23.48;;;16.77;;
59390;SDS011;53405;57.012;40.984;2022-07-25T02:14:29;27.05;;;19.98;;
59390;SDS011;53405;57.012;40.984;2022-07-25T02:17:16;27.23;;;19.90;;
59390;SDS011;53405;57.012;40.984;2022-07-25T02:20:04;25.75;;;20.02;;
59390;SDS011;53405;57.012;40.984;2022-07-25T02:22:52;32.03;;;22.23;;
59390;SDS011;53405;57.012;40.984;2022-07-25T02:25:39;26.25;;;20.75;;
59390;SDS011;53405;57.012;40.984;2022-07-25T02:28:27;33.08;;;21.45;;
59390;SDS011;53405;57.012;40.984;2022-07-25T02:31:15;28.77;;;21.70;;
59390;SDS011;53405;57.012;40.984;2022-07-25T02:34:03;30.92;;;21.65;;
59390;SDS011;53405;57.012;40.984;2022-07-25T02:36:50;27.90;;;21.48;;
59390;SDS011;53405;57.012;40.984;2022-07-25T02:39:38;33.28;;;21.55;;
59390;SDS011;53405;57.012;40.984;2022-07-25T02:42:26;29.33;;;20.55;;
59390;SDS011;53405;57.012;40.984;2022-07-25T02:45:13;27.33;;;20.75;;
59390;SDS011;53405;57.012;40.984;2022-07-25T02:48:01;38.28;;;20.90;;
59390;SDS011;53405;57.012;40.984;2022-07-25T02:50:49;28.40;;;21.30;;
59390;SDS011;53405;57.012;40.984;2022-07-25T02:53:36;34.35;;;20.88;;
59390;SDS011;53405;57.012;40.984;2022-07-25T02:56:41;32.28;;;21.15;;
59390;SDS011;53405;57.012;40.984;2022-07-25T02:59:29;31.83;;;22.88;;
59390;SDS011;53405;57.012;40.984;2022-07-25T03:02:16;34.20;;;22.13;;
59390;SDS011;53405;57.012;40.984;2022-07-25T03:05:05;36.05;;;23.52;;
59390;SDS011;53405;57.012;40.984;2022-07-25T03:07:56;31.02;;;22.65;;
59390;SDS011;53405;57.012;40.984;2022-07-25T03:10:43;30.92;;;23.98;;
59390;SDS011;53405;57.012;40.984;2022-07-25T03:13:30;32.08;;;23.50;;
59390;SDS011;53405;57.012;40.984;2022-07-25T03:16:19;29.48;;;22.83;;
59390;SDS011;53405;57.012;40.984;2022-07-25T03:19:06;27.80;;;22.08;;
59390;SDS011;53405;57.012;40.984;2022-07-25T03:21:56;28.80;;;20.92;;
59390;SDS011;53405;57.012;40.984;2022-07-25T03:24:44;28.17;;;20.48;;
59390;SDS011;53405;57.012;40.984;2022-07-25T03:27:31;26.65;;;21.85;;
59390;SDS011;53405;57.012;40.984;2022-07-25T03:30:19;27.17;;;20.95;;
59390;SDS011;53405;57.012;40.984;2022-07-25T03:33:07;25.48;;;16.95;;
59390;SDS011;53405;57.012;40.984;2022-07-25T03:35:54;30.95;;;19.73;;
59390;SDS011;53405;57.012;40.984;2022-07-25T03:38:42;29.75;;;20.10;;
59390;SDS011;53405;57.012;40.984;2022-07-25T03:41:30;55.83;;;24.65;;
59390;SDS011;53405;57.012;40.984;2022-07-25T03:44:18;26.33;;;20.40;;
59390;SDS011;53405;57.012;40.984;2022-07-25T03:47:06;30.13;;;20.05;;
59390;SDS011;53405;57.012;40.984;2022-07-25T03:49:54;26.67;;;22.75;;
59390;SDS011;53405;57.012;40.984;2022-07-25T03:52:41;26.30;;;19.67;;
59390;SDS011;53405;57.012;40.984;2022-07-25T03:55:29;30.40;;;22.42;;
59390;SDS011;53405;57.012;40.984;2022-07-25T03:58:16;26.17;;;19.15;;
59390;SDS011;53405;57.012;40.984;2022-07-25T04:01:04;20.88;;;18.13;;
59390;SDS011;53405;57.012;40.984;2022-07-25T04:03:52;18.83;;;16.73;;
59390;SDS011;53405;57.012;40.984;2022-07-25T04:06:40;18.65;;;16.13;;
59390;SDS011;53405;57.012;40.984;2022-07-25T04:09:28;19.05;;;16.75;;
59390;SDS011;53405;57.012;40.984;2022-07-25T04:12:16;22.73;;;17.65;;
59390;SDS011;53405;57.012;40.984;2022-07-25T04:15:03;23.13;;;18.75;;
59390;SDS011;53405;57.012;40.984;2022-07-25T04:17:51;18.88;;;15.70;;
59390;SDS011;53405;57.012;40.984;2022-07-25T04:20:42;18.40;;;15.48;;
59390;SDS011;53405;57.012;40.984;2022-07-25T04:23:29;18.55;;;14.65;;
59390;SDS011;53405;57.012;40.984;2022-07-25T04:26:17;22.77;;;16.50;;
59390;SDS011;53405;57.012;40.984;2022-07-25T04:29:05;17.80;;;15.67;;
59390;SDS011;53405;57.012;40.984;2022-07-25T04:31:53;21.60;;;17.20;;
59390;SDS011;53405;57.012;40.984;2022-07-25T04:34:41;22.73;;;18.40;;
59390;SDS011;53405;57.012;40.984;2022-07-25T04:37:32;24.58;;;16.67;;
59390;SDS011;53405;57.012;40.984;2022-07-25T04:40:22;19.08;;;16.10;;
59390;SDS011;53405;57.012;40.984;2022-07-25T04:43:09;27.95;;;15.63;;
59390;SDS011;53405;57.012;40.984;2022-07-25T04:45:57;19.38;;;15.65;;
59390;SDS011;53405;57.012;40.984;2022-07-25T04:48:45;18.35;;;16.02;;
59390;SDS011;53405;57.012;40.984;2022-07-25T04:51:33;21.53;;;17.70;;
59390;SDS011;53405;57.012;40.984;2022-07-25T04:54:21;22.25;;;16.17;;
59390;SDS011;53405;57.012;40.984;2022-07-25T04:57:08;18.60;;;15.38;;
59390;SDS011;53405;57.012;40.984;2022-07-25T04:59:56;22.00;;;16.13;;
59390;SDS011;53405;57.012;40.984;2022-07-25T05:02:44;26.30;;;14.90;;
59390;SDS011;53405;57.012;40.984;2022-07-25T05:05:32;20.95;;;15.27;;
59390;SDS011;53405;57.012;40.984;2022-07-25T05:08:19;20.15;;;13.57;;
59390;SDS011;53405;57.012;40.984;2022-07-25T05:11:07;18.83;;;14.32;;
59390;SDS011;53405;57.012;40.984;2022-07-25T05:13:54;15.40;;;13.57;;
59390;SDS011;53405;57.012;40.984;2022-07-25T05:16:42;20.30;;;14.07;;
59390;SDS011;53405;57.012;40.984;2022-07-25T05:19:30;22.13;;;15.02;;
59390;SDS011;53405;57.012;40.984;2022-07-25T05:22:17;21.50;;;15.35;;
59390;SDS011;53405;57.012;40.984;2022-07-25T05:25:06;23.33;;;15.80;;
59390;SDS011;53405;57.012;40.984;2022-07-25T05:27:54;23.52;;;16.52;;
59390;SDS011;53405;57.012;40.984;2022-07-25T05:30:44;21.92;;;16.60;;
59390;SDS011;53405;57.012;40.984;2022-07-25T05:33:32;23.45;;;15.93;;
59390;SDS011;53405;57.012;40.984;2022-07-25T05:36:20;18.67;;;15.15;;
59390;SDS011;53405;57.012;40.984;2022-07-25T05:39:08;17.73;;;15.65;;
59390;SDS011;53405;57.012;40.984;2022-07-25T05:41:56;25.57;;;16.13;;
59390;SDS011;53405;57.012;40.984;2022-07-25T05:44:43;34.03;;;15.45;;
59390;SDS011;53405;57.012;40.984;2022-07-25T05:47:31;17.67;;;13.55;;
59390;SDS011;53405;57.012;40.984;2022-07-25T05:50:18;19.85;;;15.40;;
59390;SDS011;53405;57.012;40.984;2022-07-25T05:53:06;21.58;;;16.15;;
59390;SDS011;53405;57.012;40.984;2022-07-25T05:55:53;27.75;;;15.48;;
59390;SDS011;53405;57.012;40.984;2022-07-25T05:58:41;24.53;;;16.17;;
59390;SDS011;53405;57.012;40.984;2022-07-25T06:01:29;23.13;;;15.80;;
59390;SDS011;53405;57.012;40.984;2022-07-25T06:04:17;23.17;;;15.43;;
59390;SDS011;53405;57.012;40.984;2022-07-25T06:07:04;18.48;;;14.18;;
59390;SDS011;53405;57.012;40.984;2022-07-25T06:09:52;19.17;;;15.27;;
59390;SDS011;53405;57.012;40.984;2022-07-25T06:12:39;24.13;;;14.15;;
59390;SDS011;53405;57.012;40.984;2022-07-25T06:15:27;18.92;;;13.57;;
59390;SDS011;53405;57.012;40.984;2022-07-25T06:18:15;16.40;;;11.83;;
59390;SDS011;53405;57.012;40.984;2022-07-25T06:21:02;23.40;;;14.15;;
59390;SDS011;53405;57.012;40.984;2022-07-25T06:23:50;18.85;;;14.07;;
59390;SDS011;53405;57.012;40.984;2022-07-25T06:26:37;17.95;;;13.93;;
59390;SDS011;53405;57.012;40.984;2022-07-25T06:29:25;23.50;;;15.68;;
59390;SDS011;53405;57.012;40.984;2022-07-25T06:32:13;18.17;;;14.35;;
59390;SDS011;53405;57.012;40.984;2022-07-25T06:35:00;16.33;;;14.00;;
59390;SDS011;53405;57.012;40.984;2022-07-25T06:37:49;15.95;;;12.88;;
59390;SDS011;53405;57.012;40.984;2022-07-25T06:40:36;20.97;;;13.13;;
59390;SDS011;53405;57.012;40.984;2022-07-25T06:43:24;14.98;;;11.20;;
59390;SDS011;53405;57.012;40.984;2022-07-25T06:46:13;14.73;;;10.50;;
59390;SDS011;53405;57.012;40.984;2022-07-25T06:49:00;13.23;;;11.55;;
59390;SDS011;53405;57.012;40.984;2022-07-25T06:51:48;14.57;;;11.87;;
59390;SDS011;53405;57.012;40.984;2022-07-25T06:54:35;11.55;;;8.30;;
59390;SDS011;53405;57.012;40.984;2022-07-25T06:57:23;9.85;;;8.63;;
59390;SDS011;53405;57.012;40.984;2022-07-25T07:00:11;11.03;;;7.50;;
59390;SDS011;53405;57.012;40.984;2022-07-25T07:03:00;10.07;;;6.88;;
59390;SDS011;53405;57.012;40.984;2022-07-25T07:05:48;9.10;;;7.68;;
59390;SDS011;53405;57.012;40.984;2022-07-25T07:08:36;9.52;;;7.78;;
59390;SDS011;53405;57.012;40.984;2022-07-25T07:11:24;8.73;;;7.57;;
59390;SDS011;53405;57.012;40.984;2022-07-25T07:14:11;9.77;;;7.22;;
59390;SDS011;53405;57.012;40.984;2022-07-25T07:16:59;12.00;;;6.60;;
59390;SDS011;53405;57.012;40.984;2022-07-25T07:19:47;9.83;;;7.97;;
59390;SDS011;53405;57.012;40.984;2022-07-25T07:22:44;8.48;;;7.05;;
59390;SDS011;53405;57.012;40.984;2022-07-25T07:25:33;13.63;;;7.65;;
59390;SDS011;53405;57.012;40.984;2022-07-25T07:28:21;9.10;;;7.20;;
59390;SDS011;53405;57.012;40.984;2022-07-25T07:31:09;9.52;;;7.45;;
59390;SDS011;53405;57.012;40.984;2022-07-25T07:34:04;9.18;;;7.35;;
59390;SDS011;53405;57.012;40.984;2022-07-25T07:39:39;10.82;;;8.40;;
59390;SDS011;53405;57.012;40.984;2022-07-25T07:42:35;10.73;;;8.25;;
59390;SDS011;53405;57.012;40.984;2022-07-25T07:45:32;10.25;;;7.88;;
59390;SDS011;53405;57.012;40.984;2022-07-25T07:48:22;14.15;;;8.55;;
59390;SDS011;53405;57.012;40.984;2022-07-25T07:51:12;12.65;;;7.97;;
59390;SDS011;53405;57.012;40.984;2022-07-25T07:54:00;11.38;;;8.32;;
59390;SDS011;53405;57.012;40.984;2022-07-25T07:57:06;12.02;;;8.43;;
59390;SDS011;53405;57.012;40.984;2022-07-25T07:59:54;11.57;;;8.32;;
59390;SDS011;53405;57.012;40.984;2022-07-25T08:02:43;12.73;;;8.20;;
59390;SDS011;53405;57.012;40.984;2022-07-25T08:05:33;11.43;;;8.13;;
59390;SDS011;53405;57.012;40.984;2022-07-25T08:08:26;11.35;;;8.30;;
59390;SDS011;53405;57.012;40.984;2022-07-25T08:11:16;9.68;;;8.15;;
59390;SDS011;53405;57.012;40.984;2022-07-25T08:14:05;8.85;;;7.88;;
59390;SDS011;53405;57.012;40.984;2022-07-25T08:16:53;8.50;;;7.60;;
59390;SDS011;53405;57.012;40.984;2022-07-25T08:19:43;10.80;;;7.95;;
59390;SDS011;53405;57.012;40.984;2022-07-25T08:22:34;11.80;;;8.48;;
59390;SDS011;53405;57.012;40.984;2022-07-25T08:25:26;11.70;;;8.50;;
59390;SDS011;53405;57.012;40.984;2022-07-25T08:34:14;12.50;;;8.32;;
59390;SDS011;53405;57.012;40.984;2022-07-25T08:37:02;10.02;;;8.10;;
59390;SDS011;53405;57.012;40.984;2022-07-25T08:39:50;10.90;;;8.57;;
59390;SDS011;53405;57.012;40.984;2022-07-25T08:42:38;12.05;;;8.77;;
59390;SDS011;53405;57.012;40.984;2022-07-25T08:48:24;10.80;;;8.13;;
59390;SDS011;53405;57.012;40.984;2022-07-25T08:51:12;12.73;;;8.90;;
59390;SDS011;53405;57.012;40.984;2022-07-25T08:54:00;10.95;;;8.57;;
59390;SDS011;53405;57.012;40.984;2022-07-25T08:56:49;11.23;;;8.15;;
59390;SDS011;53405;57.012;40.984;2022-07-25T08:59:37;9.68;;;7.50;;
59390;SDS011;53405;57.012;40.984;2022-07-25T09:05:13;12.13;;;8.10;;
59390;SDS011;53405;57.012;40.984;2022-07-25T09:08:19;14.73;;;8.48;;
59390;SDS011;53405;57.012;40.984;2022-07-25T09:11:07;12.18;;;7.50;;
59390;SDS011;53405;57.012;40.984;2022-07-25T09:14:01;10.35;;;7.50;;
59390;SDS011;53405;57.012;40.984;2022-07-25T09:16:53;13.80;;;7.85;;
59390;SDS011;53405;57.012;40.984;2022-07-25T09:19:40;14.55;;;7.75;;
59390;SDS011;53405;57.012;40.984;2022-07-25T09:22:42;11.55;;;7.47;;
59390;SDS011;53405;57.012;40.984;2022-07-25T09:25:32;12.18;;;7.35;;
59390;SDS011;53405;57.012;40.984;2022-07-25T09:31:08;10.82;;;7.20;;
59390;SDS011;53405;57.012;40.984;2022-07-25T09:33:56;11.98;;;7.88;;
59390;SDS011;53405;57.012;40.984;2022-07-25T09:36:52;12.68;;;7.82;;
59390;SDS011;53405;57.012;40.984;2022-07-25T09:39:47;12.57;;;8.07;;
59390;SDS011;53405;57.012;40.984;2022-07-25T09:42:37;11.00;;;7.95;;
59390;SDS011;53405;57.012;40.984;2022-07-25T09:48:16;18.13;;;7.85;;
59390;SDS011;53405;57.012;40.984;2022-07-25T09:51:07;11.82;;;7.57;;
59390;SDS011;53405;57.012;40.984;2022-07-25T09:53:54;10.30;;;7.85;;
59390;SDS011;53405;57.012;40.984;2022-07-25T09:56:42;9.52;;;7.50;;
59390;SDS011;53405;57.012;40.984;2022-07-25T09:59:29;12.75;;;8.55;;
59390;SDS011;53405;57.012;40.984;2022-07-25T10:08:37;9.90;;;7.18;;
59390;SDS011;53405;57.012;40.984;2022-07-25T10:11:27;9.23;;;7.70;;
59390;SDS011;53405;57.012;40.984;2022-07-25T10:14:16;14.60;;;7.65;;
59390;SDS011;53405;57.012;40.984;2022-07-25T10:17:04;8.73;;;7.25;;
59390;SDS011;53405;57.012;40.984;2022-07-25T10:19:52;10.45;;;8.00;;
59390;SDS011;53405;57.012;40.984;2022-07-25T10:22:44;10.63;;;7.70;;
59390;SDS011;53405;57.012;40.984;2022-07-25T10:28:58;9.63;;;7.70;;
59390;SDS011;53405;57.012;40.984;2022-07-25T10:31:47;11.80;;;7.45;;
59390;SDS011;53405;57.012;40.984;2022-07-25T10:34:37;12.00;;;7.53;;
59390;SDS011;53405;57.012;40.984;2022-07-25T10:37:26;12.55;;;7.60;;
59390;SDS011;53405;57.012;40.984;2022-07-25T10:40:28;10.07;;;7.78;;
59390;SDS011;53405;57.012;40.984;2022-07-25T10:43:26;11.20;;;8.15;;
59390;SDS011;53405;57.012;40.984;2022-07-25T10:46:17;11.38;;;7.55;;
59390;SDS011;53405;57.012;40.984;2022-07-25T10:49:06;9.63;;;8.10;;
59390;SDS011;53405;57.012;40.984;2022-07-25T10:52:03;9.07;;;7.85;;
59390;SDS011;53405;57.012;40.984;2022-07-25T10:54:52;10.30;;;7.95;;
59390;SDS011;53405;57.012;40.984;2022-07-25T10:57:44;13.40;;;7.78;;
59390;SDS011;53405;57.012;40.984;2022-07-25T11:00:47;10.55;;;7.82;;
59390;SDS011;53405;57.012;40.984;2022-07-25T11:03:37;10.27;;;8.32;;
59390;SDS011;53405;57.012;40.984;2022-07-25T11:09:27;11.32;;;8.32;;
59390;SDS011;53405;57.012;40.984;2022-07-25T11:12:14;10.88;;;8.23;;
59390;SDS011;53405;57.012;40.984;2022-07-25T11:15:03;10.93;;;8.45;;
59390;SDS011;53405;57.012;40.984;2022-07-25T11:17:52;10.40;;;8.45;;
59390;SDS011;53405;57.012;40.984;2022-07-25T11:20:41;10.70;;;8.90;;
59390;SDS011;53405;57.012;40.984;2022-07-25T11:23:29;14.57;;;8.90;;
59390;SDS011;53405;57.012;40.984;2022-07-25T11:26:16;12.43;;;8.52;;
59390;SDS011;53405;57.012;40.984;2022-07-25T11:29:04;12.82;;;9.07;;
59390;SDS011;53405;57.012;40.984;2022-07-25T11:31:53;11.98;;;8.45;;
59390;SDS011;53405;57.012;40.984;2022-07-25T11:34:49;9.98;;;8.10;;
59390;SDS011;53405;57.012;40.984;2022-07-25T11:37:39;9.77;;;7.00;;
59390;SDS011;53405;57.012;40.984;2022-07-25T11:40:29;11.38;;;7.72;;
59390;SDS011;53405;57.012;40.984;2022-07-25T11:43:19;10.60;;;7.10;;
59390;SDS011;53405;57.012;40.984;2022-07-25T11:46:08;16.83;;;7.50;;
59390;SDS011;53405;57.012;40.984;2022-07-25T11:49:02;10.23;;;7.32;;
59390;SDS011;53405;57.012;40.984;2022-07-25T11:51:52;8.52;;;7.10;;
59390;SDS011;53405;57.012;40.984;2022-07-25T11:54:48;13.68;;;7.47;;
59390;SDS011;53405;57.012;40.984;2022-07-25T11:57:38;10.40;;;6.93;;
59390;SDS011;53405;57.012;40.984;2022-07-25T12:00:28;10.25;;;7.55;;
59390;SDS011;53405;57.012;40.984;2022-07-25T12:03:17;10.70;;;7.55;;
59390;SDS011;53405;57.012;40.984;2022-07-25T12:06:10;13.05;;;7.50;;
59390;SDS011;53405;57.012;40.984;2022-07-25T12:09:08;10.18;;;6.80;;
59390;SDS011;53405;57.012;40.984;2022-07-25T12:12:04;10.73;;;7.07;;
59390;SDS011;53405;57.012;40.984;2022-07-25T12:14:51;14.70;;;7.93;;
59390;SDS011;53405;57.012;40.984;2022-07-25T12:17:39;13.30;;;7.45;;
59390;SDS011;53405;57.012;40.984;2022-07-25T12:20:28;13.77;;;7.25;;
59390;SDS011;53405;57.012;40.984;2022-07-25T12:23:18;13.27;;;7.93;;
59390;SDS011;53405;57.012;40.984;2022-07-25T12:26:07;9.35;;;6.90;;
59390;SDS011;53405;57.012;40.984;2022-07-25T12:28:57;8.48;;;7.03;;
59390;SDS011;53405;57.012;40.984;2022-07-25T12:31:44;8.63;;;7.18;;
59390;SDS011;53405;57.012;40.984;2022-07-25T12:34:32;11.50;;;7.07;;
59390;SDS011;53405;57.012;40.984;2022-07-25T12:37:20;11.48;;;7.00;;
59390;SDS011;53405;57.012;40.984;2022-07-25T12:40:08;8.82;;;7.80;;
59390;SDS011;53405;57.012;40.984;2022-07-25T12:42:57;9.27;;;7.10;;
59390;SDS011;53405;57.012;40.984;2022-07-25T12:45:45;13.93;;;7.25;;
59390;SDS011;53405;57.012;40.984;2022-07-25T12:48:32;10.75;;;7.13;;
59390;SDS011;53405;57.012;40.984;2022-07-25T12:51:20;12.10;;;7.53;;
59390;SDS011;53405;57.012;40.984;2022-07-25T12:54:08;34.60;;;7.70;;
59390;SDS011;53405;57.012;40.984;2022-07-25T12:56:55;8.48;;;7.45;;
59390;SDS011;53405;57.012;40.984;2022-07-25T12:59:43;12.73;;;7.63;;
59390;SDS011;53405;57.012;40.984;2022-07-25T13:02:31;11.18;;;7.50;;
59390;SDS011;53405;57.012;40.984;2022-07-25T13:05:19;13.57;;;7.55;;
59390;SDS011;53405;57.012;40.984;2022-07-25T13:08:06;13.03;;;7.60;;
59390;SDS011;53405;57.012;40.984;2022-07-25T13:10:54;11.82;;;7.75;;
59390;SDS011;53405;57.012;40.984;2022-07-25T13:13:44;11.32;;;7.97;;
59390;SDS011;53405;57.012;40.984;2022-07-25T13:16:32;11.73;;;7.90;;
59390;SDS011;53405;57.012;40.984;2022-07-25T13:19:20;10.40;;;7.47;;
59390;SDS011;53405;57.012;40.984;2022-07-25T13:22:08;11.20;;;7.50;;
59390;SDS011;53405;57.012;40.984;2022-07-25T13:24:55;13.90;;;7.07;;
59390;SDS011;53405;57.012;40.984;2022-07-25T13:27:43;9.85;;;7.28;;
59390;SDS011;53405;57.012;40.984;2022-07-25T13:30:31;15.90;;;8.03;;
59390;SDS011;53405;57.012;40.984;2022-07-25T13:33:18;13.07;;;10.15;;
59390;SDS011;53405;57.012;40.984;2022-07-25T13:36:06;11.33;;;8.90;;
59390;SDS011;53405;57.012;40.984;2022-07-25T13:38:54;11.40;;;7.75;;
59390;SDS011;53405;57.012;40.984;2022-07-25T13:41:41;9.38;;;7.80;;
59390;SDS011;53405;57.012;40.984;2022-07-25T13:44:29;10.57;;;8.30;;
59390;SDS011;53405;57.012;40.984;2022-07-25T13:47:17;18.98;;;8.57;;
59390;SDS011;53405;57.012;40.984;2022-07-25T13:50:05;9.67;;;7.67;;
59390;SDS011;53405;57.012;40.984;2022-07-25T13:52:52;10.68;;;8.43;;
59390;SDS011;53405;57.012;40.984;2022-07-25T13:55:43;9.85;;;7.57;;
59390;SDS011;53405;57.012;40.984;2022-07-25T13:58:31;9.10;;;8.20;;
59390;SDS011;53405;57.012;40.984;2022-07-25T14:01:19;10.00;;;8.50;;
59390;SDS011;53405;57.012;40.984;2022-07-25T14:04:06;13.57;;;8.20;;
59390;SDS011;53405;57.012;40.984;2022-07-25T14:06:54;9.57;;;7.35;;
59390;SDS011;53405;57.012;40.984;2022-07-25T14:09:42;9.05;;;7.05;;
59390;SDS011;53405;57.012;40.984;2022-07-25T14:12:29;9.37;;;7.83;;
59390;SDS011;53405;57.012;40.984;2022-07-25T14:15:17;9.40;;;7.80;;
59390;SDS011;53405;57.012;40.984;2022-07-25T14:18:04;11.35;;;7.50;;
59390;SDS011;53405;57.012;40.984;2022-07-25T14:20:52;10.32;;;8.20;;
59390;SDS011;53405;57.012;40.984;2022-07-25T14:23:41;11.88;;;8.07;;
59390;SDS011;53405;57.012;40.984;2022-07-25T14:26:28;13.55;;;7.85;;
59390;SDS011;53405;57.012;40.984;2022-07-25T14:32:04;11.88;;;7.82;;
59390;SDS011;53405;57.012;40.984;2022-07-25T14:34:53;10.35;;;8.05;;
59390;SDS011;53405;57.012;40.984;2022-07-25T14:37:41;12.75;;;8.07;;
59390;SDS011;53405;57.012;40.984;2022-07-25T14:40:31;11.27;;;7.65;;
59390;SDS011;53405;57.012;40.984;2022-07-25T14:43:19;11.40;;;7.82;;
59390;SDS011;53405;57.012;40.984;2022-07-25T14:46:07;12.68;;;8.18;;
59390;SDS011;53405;57.012;40.984;2022-07-25T14:51:44;9.57;;;7.20;;
59390;SDS011;53405;57.012;40.984;2022-07-25T14:54:31;15.60;;;7.78;;
59390;SDS011;53405;57.012;40.984;2022-07-25T14:57:19;9.27;;;7.13;;
59390;SDS011;53405;57.012;40.984;2022-07-25T15:00:07;9.97;;;8.80;;
59390;SDS011;53405;57.012;40.984;2022-07-25T15:02:55;11.95;;;9.73;;
59390;SDS011;53405;57.012;40.984;2022-07-25T15:05:43;15.65;;;10.15;;
59390;SDS011;53405;57.012;40.984;2022-07-25T15:08:32;13.48;;;9.60;;
59390;SDS011;53405;57.012;40.984;2022-07-25T15:11:20;13.68;;;9.68;;
59390;SDS011;53405;57.012;40.984;2022-07-25T15:14:08;16.67;;;9.88;;
59390;SDS011;53405;57.012;40.984;2022-07-25T15:16:56;13.40;;;10.48;;
59390;SDS011;53405;57.012;40.984;2022-07-25T15:19:44;11.60;;;9.77;;
59390;SDS011;53405;57.012;40.984;2022-07-25T15:22:31;12.77;;;11.07;;
59390;SDS011;53405;57.012;40.984;2022-07-25T15:25:19;11.07;;;9.97;;
59390;SDS011;53405;57.012;40.984;2022-07-25T15:28:26;13.23;;;9.82;;
59390;SDS011;53405;57.012;40.984;2022-07-25T15:36:50;16.20;;;10.57;;
59390;SDS011;53405;57.012;40.984;2022-07-25T15:39:40;17.50;;;10.45;;
59390;SDS011;53405;57.012;40.984;2022-07-25T15:42:28;16.77;;;10.73;;
59390;SDS011;53405;57.012;40.984;2022-07-25T15:45:15;26.05;;;17.75;;
59390;SDS011;53405;57.012;40.984;2022-07-25T15:54:58;19.58;;;11.57;;
59390;SDS011;53405;57.012;40.984;2022-07-25T15:57:46;13.80;;;10.40;;
59390;SDS011;53405;57.012;40.984;2022-07-25T16:00:34;18.42;;;11.90;;
59390;SDS011;53405;57.012;40.984;2022-07-25T16:03:23;18.73;;;12.93;;
59390;SDS011;53405;57.012;40.984;2022-07-25T16:06:11;17.27;;;12.15;;
59390;SDS011;53405;57.012;40.984;2022-07-25T16:09:01;19.75;;;12.70;;
59390;SDS011;53405;57.012;40.984;2022-07-25T16:14:37;16.60;;;10.90;;
59390;SDS011;53405;57.012;40.984;2022-07-25T16:17:25;14.75;;;10.68;;
59390;SDS011;53405;57.012;40.984;2022-07-25T16:20:17;15.75;;;10.77;;
59390;SDS011;53405;57.012;40.984;2022-07-25T16:26:19;15.00;;;9.75;;
59390;SDS011;53405;57.012;40.984;2022-07-25T16:29:07;14.77;;;11.30;;
59390;SDS011;53405;57.012;40.984;2022-07-25T16:31:55;20.23;;;11.35;;
59390;SDS011;53405;57.012;40.984;2022-07-25T16:34:43;16.38;;;10.95;;
59390;SDS011;53405;57.012;40.984;2022-07-25T16:37:32;19.42;;;10.48;;
59390;SDS011;53405;57.012;40.984;2022-07-25T16:40:19;13.43;;;10.57;;
59390;SDS011;53405;57.012;40.984;2022-07-25T16:43:07;15.75;;;11.15;;
59390;SDS011;53405;57.012;40.984;2022-07-25T16:45:55;13.50;;;10.47;;
59390;SDS011;53405;57.012;40.984;2022-07-25T16:48:42;19.33;;;12.37;;
59390;SDS011;53405;57.012;40.984;2022-07-25T16:51:30;17.83;;;12.20;;
59390;SDS011;53405;57.012;40.984;2022-07-25T16:54:21;12.98;;;10.60;;
59390;SDS011;53405;57.012;40.984;2022-07-25T16:57:09;16.58;;;11.52;;
59390;SDS011;53405;57.012;40.984;2022-07-25T16:59:57;12.75;;;11.20;;
59390;SDS011;53405;57.012;40.984;2022-07-25T17:02:49;13.45;;;11.82;;
59390;SDS011;53405;57.012;40.984;2022-07-25T17:05:37;14.32;;;11.70;;
59390;SDS011;53405;57.012;40.984;2022-07-25T17:08:26;16.42;;;10.85;;
59390;SDS011;53405;57.012;40.984;2022-07-25T17:11:14;16.20;;;11.13;;
59390;SDS011;53405;57.012;40.984;2022-07-25T17:14:06;14.30;;;11.10;;
59390;SDS011;53405;57.012;40.984;2022-07-25T17:16:57;14.23;;;11.07;;
59390;SDS011;53405;57.012;40.984;2022-07-25T17:19:51;16.08;;;11.15;;